Time;durP1;ratioP1;P1;durP2;ratioP2;P2;SDS_P1;SDS_P2;PMS_P1;PMS_P2;Temp;Humidity;BMP_temperature;BMP_pressure;BME280_temperature;BME280_humidity;BME280_pressure;Samples;Min_cycle;Max_cycle;Signal;HPM_P1;HPM_P2
2022/04/29 00:02:27;;;;;;;23.95;12.58;;;;;;;;;;4241100;84;28554;-80
2022/04/29 00:08:27;;;;;;;25.35;13.35;;;;;;;;;;4238944;82;28510;-79
2022/04/29 00:14:29;;;;;;;24.92;12.85;;;;;;;;;;4251291;82;28561;-79
2022/04/29 00:20:29;;;;;;;24.43;13.30;;;;;;;;;;4257313;83;28495;-79
2022/04/29 00:26:30;;;;;;;26.90;13.88;;;;;;;;;;4250976;82;28460;-79
2022/04/29 00:32:31;;;;;;;27.55;13.93;;;;;;;;;;4257496;82;28500;-79
2022/04/29 00:38:32;;;;;;;26.52;14.50;;;;;;;;;;4255528;83;28579;-79
2022/04/29 00:44:33;;;;;;;24.75;13.20;;;;;;;;;;4252907;83;28515;-78
2022/04/29 00:50:34;;;;;;;26.70;13.30;;;;;;;;;;4250633;82;28521;-80
2022/04/29 00:56:36;;;;;;;22.65;12.35;;;;;;;;;;4253680;83;28558;-79
2022/04/29 01:02:39;;;;;;;28.67;14.53;;;;;;;;;;4245622;83;28557;-78
2022/04/29 01:08:39;;;;;;;24.92;13.75;;;;;;;;;;4253626;83;28561;-79
2022/04/29 01:14:40;;;;;;;27.98;14.43;;;;;;;;;;4241092;82;28470;-79
2022/04/29 01:20:41;;;;;;;24.18;14.07;;;;;;;;;;4234137;83;28661;-79
2022/04/29 01:26:42;;;;;;;32.03;15.23;;;;;;;;;;4238231;82;28530;-79
2022/04/29 01:32:44;;;;;;;25.95;14.60;;;;;;;;;;4239929;84;28534;-78
2022/04/29 01:38:45;;;;;;;26.73;13.95;;;;;;;;;;4241342;84;28478;-78
2022/04/29 01:44:46;;;;;;;24.87;13.83;;;;;;;;;;4239638;82;28505;-78
2022/04/29 01:50:48;;;;;;;25.85;14.45;;;;;;;;;;4240583;82;28576;-78
2022/04/29 01:56:52;;;;;;;26.35;14.83;;;;;;;;;;4238761;83;28542;-78
2022/04/29 02:02:51;;;;;;;25.70;15.32;;;;;;;;;;4239880;82;28461;-81
2022/04/29 02:08:53;;;;;;;25.88;14.73;;;;;;;;;;4236887;82;28518;-79
2022/04/29 02:14:54;;;;;;;28.60;15.70;;;;;;;;;;4217470;83;28514;-79
2022/04/29 02:20:57;;;;;;;29.10;14.35;;;;;;;;;;4210262;83;28597;-80
2022/04/29 02:26:59;;;;;;;26.02;13.78;;;;;;;;;;4210310;83;28544;-78
2022/04/29 02:33:00;;;;;;;30.43;15.50;;;;;;;;;;4210561;83;28468;-79
2022/04/29 02:39:03;;;;;;;28.55;15.08;;;;;;;;;;4207590;83;28491;-78
2022/04/29 02:45:04;;;;;;;29.20;15.63;;;;;;;;;;4215139;83;28562;-79
2022/04/29 02:51:19;;;;;;;29.45;15.10;;;;;;;;;;4217053;83;28516;-79
2022/04/29 02:57:19;;;;;;;30.40;16.00;;;;;;;;;;4220185;83;29575;-79
2022/04/29 03:03:22;;;;;;;26.42;14.93;;;;;;;;;;4216311;83;28443;-80
2022/04/29 03:09:23;;;;;;;29.20;15.05;;;;;;;;;;4216583;84;28515;-79
2022/04/29 03:15:25;;;;;;;27.55;13.95;;;;;;;;;;4249312;82;28527;-79
2022/04/29 03:21:28;;;;;;;31.20;16.02;;;;;;;;;;4253597;83;28500;-79
2022/04/29 03:27:28;;;;;;;29.27;16.32;;;;;;;;;;4248108;82;28499;-80
2022/04/29 03:33:29;;;;;;;30.12;17.85;;;;;;;;;;4255965;83;28530;-79
2022/04/29 03:39:30;;;;;;;32.98;16.52;;;;;;;;;;4254663;82;28583;-79
2022/04/29 03:45:31;;;;;;;33.10;16.97;;;;;;;;;;4249287;82;28546;-80
2022/04/29 03:51:33;;;;;;;31.05;15.28;;;;;;;;;;4250487;83;28464;-78
2022/04/29 03:57:35;;;;;;;29.90;15.43;;;;;;;;;;4255054;82;28539;-79
2022/04/29 04:03:36;;;;;;;30.00;16.97;;;;;;;;;;4256819;82;28485;-80
2022/04/29 04:09:39;;;;;;;31.75;16.87;;;;;;;;;;4252473;82;28546;-78
2022/04/29 04:15:40;;;;;;;27.85;16.55;;;;;;;;;;4247574;82;28475;-77
2022/04/29 04:21:42;;;;;;;32.33;17.45;;;;;;;;;;4273714;82;28526;-78
2022/04/29 04:27:43;;;;;;;31.45;17.48;;;;;;;;;;4267810;82;28491;-78
2022/04/29 04:33:43;;;;;;;28.17;16.67;;;;;;;;;;4273625;83;28470;-79
2022/04/29 04:39:44;;;;;;;30.68;18.17;;;;;;;;;;4250867;82;28554;-81
2022/04/29 04:45:48;;;;;;;28.77;15.93;;;;;;;;;;4267303;82;28533;-80
2022/04/29 04:52:08;;;;;;;31.65;16.20;;;;;;;;;;4272829;82;28518;-80
2022/04/29 04:58:09;;;;;;;28.20;15.03;;;;;;;;;;4273128;82;28514;-82
2022/04/29 05:04:10;;;;;;;29.70;16.17;;;;;;;;;;4273137;82;28492;-80
2022/04/29 05:10:30;;;;;;;30.52;15.68;;;;;;;;;;4283118;82;28584;-82
2022/04/29 05:16:33;;;;;;;29.52;16.25;;;;;;;;;;4263617;82;28492;-81
2022/04/29 05:22:52;;;;;;;30.30;16.23;;;;;;;;;;4254338;82;28502;-83
2022/04/29 05:28:53;;;;;;;27.82;15.75;;;;;;;;;;4292399;82;28533;-84
2022/04/29 05:35:09;;;;;;;28.30;15.70;;;;;;;;;;4268453;82;28560;-83
2022/04/29 05:47:43;;;;;;;27.98;15.05;;;;;;;;;;4254126;82;28539;-83
2022/04/29 05:53:44;;;;;;;25.80;15.03;;;;;;;;;;4281539;82;28557;-83
2022/04/29 05:59:45;;;;;;;27.52;15.08;;;;;;;;;;4276235;82;28582;-81
2022/04/29 06:06:00;;;;;;;32.03;15.65;;;;;;;;;;4274415;82;28519;-81
2022/04/29 06:12:01;;;;;;;28.32;16.05;;;;;;;;;;4281025;81;28520;-81
2022/04/29 06:18:03;;;;;;;30.95;16.57;;;;;;;;;;4277461;82;28519;-79
2022/04/29 06:24:15;;;;;;;24.80;14.87;;;;;;;;;;4269630;82;28506;-81
2022/04/29 06:30:16;;;;;;;28.42;16.30;;;;;;;;;;4208556;83;28544;-81
2022/04/29 06:36:28;;;;;;;29.25;15.83;;;;;;;;;;4212701;83;28540;-81
2022/04/29 06:42:31;;;;;;;30.15;17.32;;;;;;;;;;4255035;82;28477;-81
2022/04/29 06:48:43;;;;;;;23.87;15.05;;;;;;;;;;4272687;82;28552;-81
2022/04/29 06:54:55;;;;;;;31.15;16.55;;;;;;;;;;4224849;82;28512;-81
2022/04/29 07:00:58;;;;;;;29.92;15.50;;;;;;;;;;4279782;82;28564;-82
2022/04/29 07:06:59;;;;;;;28.75;16.00;;;;;;;;;;4276485;82;28516;-80
2022/04/29 07:13:03;;;;;;;27.30;15.03;;;;;;;;;;4287626;81;28515;-81
2022/04/29 07:19:04;;;;;;;33.73;15.78;;;;;;;;;;4294921;81;28566;-78
2022/04/29 07:25:06;;;;;;;27.10;14.68;;;;;;;;;;4300200;82;28511;-81
2022/04/29 07:31:07;;;;;;;23.45;13.98;;;;;;;;;;4291970;82;28590;-81
2022/04/29 07:43:32;;;;;;;26.62;14.65;;;;;;;;;;4294754;82;35816;-82
2022/04/29 07:49:34;;;;;;;26.23;14.78;;;;;;;;;;4295769;81;28520;-83
2022/04/29 07:55:35;;;;;;;27.15;14.80;;;;;;;;;;4288455;81;28503;-81
2022/04/29 08:01:40;;;;;;;25.08;15.18;;;;;;;;;;4285301;81;28541;-81
2022/04/29 08:07:40;;;;;;;24.60;13.18;;;;;;;;;;4292084;83;28536;-82
2022/04/29 08:13:44;;;;;;;19.65;11.45;;;;;;;;;;4289848;81;28538;-81
2022/04/29 08:20:04;;;;;;;18.05;9.83;;;;;;;;;;4276556;82;29102;-81
2022/04/29 08:26:07;;;;;;;14.20;7.80;;;;;;;;;;4276674;82;28528;-82
2022/04/29 08:32:08;;;;;;;13.13;6.87;;;;;;;;;;4280991;82;28558;-81
2022/04/29 08:38:11;;;;;;;15.98;7.78;;;;;;;;;;4276034;82;28579;-78
2022/04/29 08:44:16;;;;;;;12.33;6.87;;;;;;;;;;4281271;82;48429;-83
2022/04/29 08:50:23;;;;;;;9.95;5.92;;;;;;;;;;4276172;82;28494;-82
2022/04/29 09:02:44;;;;;;;9.65;6.17;;;;;;;;;;4281472;82;28503;-80
2022/04/29 09:08:45;;;;;;;9.65;5.85;;;;;;;;;;4276505;82;28532;-81
2022/04/29 09:14:46;;;;;;;8.35;5.72;;;;;;;;;;4279736;82;28488;-80
2022/04/29 09:20:48;;;;;;;12.43;6.08;;;;;;;;;;4280566;82;28469;-80
2022/04/29 09:26:52;;;;;;;7.12;5.10;;;;;;;;;;4280950;82;28576;-85
2022/04/29 09:32:59;;;;;;;9.45;4.53;;;;;;;;;;4270136;82;28505;-85
2022/04/29 09:45:24;;;;;;;10.85;6.60;;;;;;;;;;4265239;82;28504;-85
2022/04/29 09:51:45;;;;;;;12.58;6.87;;;;;;;;;;4279504;82;28457;-86
2022/04/29 09:57:48;;;;;;;15.20;7.92;;;;;;;;;;4269027;82;28995;-85
2022/04/29 10:03:48;;;;;;;11.63;6.70;;;;;;;;;;4292244;82;28471;-85
2022/04/29 10:09:51;;;;;;;10.10;5.80;;;;;;;;;;4294959;82;28495;-84
2022/04/29 10:15:53;;;;;;;9.10;5.33;;;;;;;;;;4291947;81;28555;-84
2022/04/29 10:22:00;;;;;;;10.93;5.72;;;;;;;;;;4284320;81;28534;-85
2022/04/29 10:28:01;;;;;;;10.00;6.03;;;;;;;;;;4310039;81;28509;-84
2022/04/29 10:34:20;;;;;;;12.15;6.08;;;;;;;;;;4303926;81;28476;-84
2022/04/29 10:40:23;;;;;;;8.43;5.97;;;;;;;;;;4294126;81;28441;-84
2022/04/29 10:46:26;;;;;;;12.50;5.87;;;;;;;;;;4305043;81;28554;-84
2022/04/29 10:52:43;;;;;;;10.45;6.00;;;;;;;;;;4301615;81;28518;-84
2022/04/29 10:58:45;;;;;;;10.25;5.50;;;;;;;;;;4310352;81;28536;-83
2022/04/29 11:04:47;;;;;;;11.03;5.40;;;;;;;;;;4303275;81;28477;-84
2022/04/29 11:10:49;;;;;;;8.93;5.83;;;;;;;;;;4288187;81;28541;-83
2022/04/29 11:16:56;;;;;;;8.15;5.60;;;;;;;;;;4290933;82;28512;-84
2022/04/29 11:29:47;;;;;;;8.98;5.97;;;;;;;;;;4290230;81;28500;-83
2022/04/29 11:35:51;;;;;;;10.60;5.40;;;;;;;;;;4305692;81;28553;-83
2022/04/29 11:41:57;;;;;;;8.63;5.58;;;;;;;;;;4278511;81;28920;-83
2022/04/29 11:48:06;;;;;;;7.95;4.97;;;;;;;;;;4297943;81;28452;-84
2022/04/29 11:54:07;;;;;;;7.28;4.90;;;;;;;;;;4296152;81;28566;-84
2022/04/29 12:00:08;;;;;;;9.53;5.95;;;;;;;;;;4303347;81;28610;-84
2022/04/29 12:06:17;;;;;;;7.60;4.65;;;;;;;;;;4303066;81;28538;-85
2022/04/29 12:12:29;;;;;;;7.45;4.92;;;;;;;;;;4282505;81;28505;-85
2022/04/29 12:18:37;;;;;;;6.58;4.35;;;;;;;;;;4299991;82;28539;-85
2022/04/29 12:24:39;;;;;;;5.70;3.72;;;;;;;;;;4294827;81;28553;-85
2022/04/29 12:37:09;;;;;;;8.95;4.25;;;;;;;;;;4295338;81;28539;-84
2022/04/29 12:43:14;;;;;;;6.10;3.10;;;;;;;;;;4294639;82;28475;-84
2022/04/29 12:49:17;;;;;;;6.65;3.05;;;;;;;;;;4287670;82;28555;-74
2022/04/29 12:55:18;;;;;;;5.15;3.00;;;;;;;;;;4295736;82;28540;-76
2022/04/29 13:01:19;;;;;;;4.95;3.10;;;;;;;;;;4288813;82;28569;-77
2022/04/29 13:07:25;;;;;;;4.70;3.17;;;;;;;;;;4295242;82;28567;-76
2022/04/29 13:13:28;;;;;;;5.05;3.27;;;;;;;;;;4290010;82;28486;-77
2022/04/29 13:19:29;;;;;;;5.08;2.52;;;;;;;;;;4292410;81;28553;-76
2022/04/29 13:25:30;;;;;;;4.17;2.85;;;;;;;;;;4299563;81;28512;-75
2022/04/29 13:31:31;;;;;;;6.30;3.67;;;;;;;;;;4294992;81;28538;-76
2022/04/29 13:37:32;;;;;;;5.83;3.27;;;;;;;;;;4293347;81;28519;-75
2022/04/29 13:43:34;;;;;;;5.85;3.10;;;;;;;;;;4298455;81;28522;-76
2022/04/29 13:49:37;;;;;;;5.20;3.10;;;;;;;;;;4294760;81;28531;-77
2022/04/29 13:55:42;;;;;;;6.33;3.20;;;;;;;;;;4294838;81;28585;-76
2022/04/29 14:01:43;;;;;;;4.23;2.73;;;;;;;;;;4297357;81;28484;-76
2022/04/29 14:07:44;;;;;;;4.58;2.80;;;;;;;;;;4299588;82;35284;-75
2022/04/29 14:13:46;;;;;;;5.42;2.95;;;;;;;;;;4296318;81;28607;-73
2022/04/29 14:19:47;;;;;;;7.62;2.83;;;;;;;;;;4299438;82;28515;-74
2022/04/29 14:25:48;;;;;;;3.87;2.70;;;;;;;;;;4298982;81;28495;-75
2022/04/29 14:31:50;;;;;;;5.83;3.08;;;;;;;;;;4299543;81;28531;-75
2022/04/29 14:37:51;;;;;;;4.33;2.92;;;;;;;;;;4294502;82;28601;-75
2022/04/29 14:43:52;;;;;;;5.40;3.00;;;;;;;;;;4298311;81;28551;-77
2022/04/29 14:49:53;;;;;;;4.70;3.10;;;;;;;;;;4292390;81;28512;-75
2022/04/29 14:55:53;;;;;;;5.20;2.80;;;;;;;;;;4291918;81;28516;-76
2022/04/29 15:01:58;;;;;;;6.90;2.70;;;;;;;;;;4292829;81;28907;-76
2022/04/29 15:08:01;;;;;;;5.47;2.92;;;;;;;;;;4284062;81;28519;-77
2022/04/29 15:20:22;;;;;;;7.80;2.65;;;;;;;;;;4291881;81;28592;-78
2022/04/29 15:26:23;;;;;;;4.80;2.55;;;;;;;;;;4289917;82;28906;-78
2022/04/29 15:32:25;;;;;;;5.90;2.80;;;;;;;;;;4300280;82;28539;-78
2022/04/29 15:38:26;;;;;;;7.62;2.70;;;;;;;;;;4292570;82;28495;-78
2022/04/29 15:44:28;;;;;;;4.30;2.55;;;;;;;;;;4290580;81;28554;-77
2022/04/29 15:50:29;;;;;;;4.92;2.87;;;;;;;;;;4293032;82;28472;-80
2022/04/29 15:56:31;;;;;;;5.45;2.55;;;;;;;;;;4287521;82;28504;-76
2022/04/29 16:02:32;;;;;;;5.20;2.50;;;;;;;;;;4292006;81;28538;-78
2022/04/29 16:08:34;;;;;;;3.83;2.30;;;;;;;;;;4287302;82;28516;-78
2022/04/29 16:14:35;;;;;;;5.47;2.60;;;;;;;;;;4289136;82;28557;-78
2022/04/29 16:20:37;;;;;;;5.37;2.60;;;;;;;;;;4290208;81;28560;-78
2022/04/29 16:26:38;;;;;;;3.92;2.55;;;;;;;;;;4294034;81;28556;-77
2022/04/29 16:32:38;;;;;;;4.60;2.80;;;;;;;;;;4292537;81;28494;-77
2022/04/29 16:38:39;;;;;;;6.28;2.50;;;;;;;;;;4290732;81;28496;-78
2022/04/29 16:44:40;;;;;;;5.70;2.60;;;;;;;;;;4297185;81;28540;-79
2022/04/29 16:50:41;;;;;;;5.65;2.65;;;;;;;;;;4303425;81;28480;-79
2022/04/29 17:03:03;;;;;;;7.35;2.87;;;;;;;;;;4292561;81;28609;-77
2022/04/29 17:09:03;;;;;;;6.35;2.58;;;;;;;;;;4298544;81;28483;-77
2022/04/29 17:15:05;;;;;;;6.12;2.40;;;;;;;;;;4304297;81;28554;-78
2022/04/29 17:21:06;;;;;;;5.45;2.30;;;;;;;;;;4291089;81;28546;-79
2022/04/29 17:27:07;;;;;;;6.42;2.62;;;;;;;;;;4294507;81;28539;-77
2022/04/29 17:33:08;;;;;;;5.40;2.52;;;;;;;;;;4292199;81;28563;-77
2022/04/29 17:42:21;;;;;;;3.98;2.45;;;;;;;;;;4296051;81;28524;-76
2022/04/29 17:45:12;;;;;;;6.08;2.27;;;;;;;;;;4293431;81;28574;-78
2022/04/29 17:51:14;;;;;;;10.05;3.02;;;;;;;;;;4293381;82;28618;-77
2022/04/29 17:57:15;;;;;;;4.25;2.52;;;;;;;;;;4287379;82;28562;-76
2022/04/29 18:03:18;;;;;;;5.95;2.40;;;;;;;;;;4291339;82;28502;-75
2022/04/29 18:09:23;;;;;;;6.35;2.62;;;;;;;;;;4289147;82;28548;-80
2022/04/29 18:15:22;;;;;;;5.55;2.15;;;;;;;;;;4287138;82;28523;-80
2022/04/29 18:21:23;;;;;;;8.13;2.37;;;;;;;;;;4288200;81;28550;-79
2022/04/29 18:27:23;;;;;;;5.55;2.45;;;;;;;;;;4293250;81;28518;-77
2022/04/29 18:33:25;;;;;;;5.80;2.72;;;;;;;;;;4290665;81;28526;-77
2022/04/29 18:39:25;;;;;;;9.63;3.30;;;;;;;;;;4288783;81;28515;-75
2022/04/29 18:45:26;;;;;;;8.50;4.00;;;;;;;;;;4301577;81;28551;-77
2022/04/29 18:51:28;;;;;;;8.75;3.37;;;;;;;;;;4296932;81;28515;-78
2022/04/29 18:57:29;;;;;;;7.92;3.15;;;;;;;;;;4296160;81;28555;-76
2022/04/29 19:03:30;;;;;;;6.15;2.87;;;;;;;;;;4296030;81;28507;-76
2022/04/29 19:09:33;;;;;;;5.80;3.33;;;;;;;;;;4298834;81;28555;-75
2022/04/29 19:15:34;;;;;;;10.23;4.08;;;;;;;;;;4293091;81;28543;-76
2022/04/29 19:21:36;;;;;;;8.78;3.65;;;;;;;;;;4299456;81;28509;-78
2022/04/29 19:27:37;;;;;;;11.38;3.25;;;;;;;;;;4296686;81;28564;-75
2022/04/29 19:33:42;;;;;;;6.12;3.15;;;;;;;;;;4295497;81;28525;-76
2022/04/29 19:39:42;;;;;;;8.68;3.75;;;;;;;;;;4297544;81;28527;-76
2022/04/29 19:45:42;;;;;;;7.10;3.20;;;;;;;;;;4299188;81;28561;-77
2022/04/29 19:51:44;;;;;;;10.28;3.95;;;;;;;;;;4296206;81;28507;-74
2022/04/29 20:04:07;;;;;;;7.50;3.77;;;;;;;;;;4293128;81;28585;-75
2022/04/29 20:10:08;;;;;;;9.90;3.17;;;;;;;;;;4298848;81;28581;-79
2022/04/29 20:16:09;;;;;;;8.80;3.20;;;;;;;;;;4293467;81;28560;-74
2022/04/29 20:22:11;;;;;;;4.87;3.25;;;;;;;;;;4289135;81;28537;-75
2022/04/29 20:28:12;;;;;;;7.67;3.17;;;;;;;;;;4290964;81;28486;-76
2022/04/29 20:34:13;;;;;;;8.28;3.33;;;;;;;;;;4293474;81;28550;-78
2022/04/29 20:46:36;;;;;;;6.80;3.62;;;;;;;;;;4291612;81;28503;-76
2022/04/29 20:52:37;;;;;;;8.43;3.72;;;;;;;;;;4280020;81;28603;-77
2022/04/29 20:58:38;;;;;;;9.70;3.90;;;;;;;;;;4289477;81;28544;-75
2022/04/29 21:04:39;;;;;;;11.50;4.70;;;;;;;;;;4286264;81;28610;-74
2022/04/29 21:10:40;;;;;;;9.98;4.37;;;;;;;;;;4290227;81;28529;-77
2022/04/29 21:16:42;;;;;;;10.43;5.50;;;;;;;;;;4291603;81;28504;-76
2022/04/29 21:22:44;;;;;;;12.47;6.47;;;;;;;;;;4301553;81;28962;-76
2022/04/29 21:35:06;;;;;;;11.35;5.30;;;;;;;;;;4297470;81;28504;-78
2022/04/29 21:41:07;;;;;;;12.07;5.00;;;;;;;;;;4301085;81;29017;-76
2022/04/29 21:47:08;;;;;;;12.00;5.40;;;;;;;;;;4297421;81;28537;-74
2022/04/29 21:53:09;;;;;;;11.83;6.10;;;;;;;;;;4299858;81;28538;-75
2022/04/29 21:59:11;;;;;;;10.63;5.62;;;;;;;;;;4300533;81;28537;-75
2022/04/29 22:05:15;;;;;;;11.00;5.72;;;;;;;;;;4298098;81;28585;-75
2022/04/29 22:11:16;;;;;;;15.15;6.42;;;;;;;;;;4296495;81;28516;-75
2022/04/29 22:17:17;;;;;;;11.33;6.40;;;;;;;;;;4300235;81;28469;-77
2022/04/29 22:23:18;;;;;;;11.15;6.37;;;;;;;;;;4293563;81;29530;-78
2022/04/29 22:29:19;;;;;;;17.02;9.35;;;;;;;;;;4289742;81;28503;-78
2022/04/29 22:35:20;;;;;;;17.10;8.53;;;;;;;;;;4285145;81;28545;-76
2022/04/29 22:41:21;;;;;;;16.15;7.62;;;;;;;;;;4307522;81;28520;-76
2022/04/29 22:47:22;;;;;;;16.85;8.33;;;;;;;;;;4299497;81;28526;-75
2022/04/29 22:53:22;;;;;;;18.92;8.45;;;;;;;;;;4299164;81;28528;-74
2022/04/29 22:59:24;;;;;;;16.37;8.58;;;;;;;;;;4300421;81;28648;-76
2022/04/29 23:05:26;;;;;;;18.75;9.80;;;;;;;;;;4303227;81;28534;-76
2022/04/29 23:11:27;;;;;;;18.92;9.08;;;;;;;;;;4292272;81;28540;-76
2022/04/29 23:23:39;;;;;;;18.85;9.40;;;;;;;;;;4267323;82;28539;-75
2022/04/29 23:29:40;;;;;;;19.65;8.98;;;;;;;;;;4293838;81;28542;-75
2022/04/29 23:35:42;;;;;;;16.42;8.35;;;;;;;;;;4290297;81;28440;-75
2022/04/29 23:41:43;;;;;;;20.80;9.93;;;;;;;;;;4291822;82;28538;-75
2022/04/29 23:47:44;;;;;;;21.02;9.53;;;;;;;;;;4288648;81;28572;-76
2022/04/29 23:53:44;;;;;;;17.75;8.58;;;;;;;;;;4292761;81;28548;-75
2022/04/29 23:59:46;;;;;;;18.90;10.25;;;;;;;;;;4295404;81;28590;-75
